Time;durP1;ratioP1;P1;durP2;ratioP2;P2;SDS_P1;SDS_P2;PMS_P1;PMS_P2;Temp;Humidity;BMP_temperature;BMP_pressure;BME280_temperature;BME280_humidity;BME280_pressure;Samples;Min_cycle;Max_cycle;Signal;HPM_P1;HPM_P2
2022/11/10 00:00:20;;;;;;;14.82;4.07;;;10.20;99.90;;;;;;5026076;28;20330;-60
2022/11/10 00:02:46;;;;;;;11.32;3.53;;;10.20;99.90;;;;;;5031318;28;20043;-65
2022/11/10 00:05:13;;;;;;;16.30;3.80;;;10.10;99.90;;;;;;5038315;28;20045;-63
2022/11/10 00:07:40;;;;;;;18.15;3.67;;;10.10;99.90;;;;;;5036265;28;20389;-61
2022/11/10 00:10:06;;;;;;;21.10;4.70;;;10.10;99.90;;;;;;5029657;28;20033;-61
2022/11/10 00:12:33;;;;;;;17.95;3.83;;;10.10;99.90;;;;;;5034721;28;20124;-64
2022/11/10 00:17:44;;;;;;;12.38;3.65;;;10.10;99.90;;;;;;5034066;28;20403;-62
2022/11/10 00:20:10;;;;;;;17.95;4.28;;;10.00;99.90;;;;;;5029850;28;20088;-62
2022/11/10 00:22:37;;;;;;;15.70;3.80;;;10.00;99.90;;;;;;5032976;28;20038;-60
2022/11/10 00:25:04;;;;;;;15.43;3.67;;;10.00;99.90;;;;;;5029657;28;20163;-62
2022/11/10 00:27:31;;;;;;;15.93;3.75;;;10.00;99.90;;;;;;5030258;28;20037;-60
2022/11/10 00:29:57;;;;;;;13.88;3.75;;;9.90;99.90;;;;;;5030644;28;20037;-61
2022/11/10 00:32:23;;;;;;;12.80;4.10;;;9.90;99.90;;;;;;5013495;28;20436;-60
2022/11/10 00:34:49;;;;;;;11.75;3.90;;;9.90;99.90;;;;;;5028715;28;20156;-61
2022/11/10 00:37:14;;;;;;;15.95;4.07;;;9.90;99.90;;;;;;5032178;28;20069;-60
2022/11/10 00:39:40;;;;;;;18.10;4.10;;;9.90;99.90;;;;;;5035560;28;20068;-60
2022/11/10 00:42:06;;;;;;;14.43;3.90;;;9.90;99.90;;;;;;5030027;28;20033;-60
2022/11/10 00:44:32;;;;;;;15.90;4.63;;;9.80;99.90;;;;;;5029707;28;20566;-60
2022/11/10 00:46:58;;;;;;;16.35;4.22;;;9.90;99.90;;;;;;5029532;28;20120;-60
2022/11/10 00:49:24;;;;;;;17.20;4.00;;;9.80;99.90;;;;;;5029036;28;20129;-60
2022/11/10 00:51:50;;;;;;;16.45;4.15;;;9.80;99.90;;;;;;5029172;28;20148;-60
2022/11/10 00:54:16;;;;;;;13.35;3.97;;;9.70;99.90;;;;;;5021774;28;20116;-60
2022/11/10 00:56:41;;;;;;;18.63;4.68;;;9.70;99.90;;;;;;5029289;28;20120;-61
2022/11/10 00:59:07;;;;;;;14.20;4.53;;;9.70;99.90;;;;;;5030496;28;20116;-60
2022/11/10 01:01:32;;;;;;;17.58;4.40;;;9.70;99.90;;;;;;5030485;28;20087;-61
2022/11/10 01:03:58;;;;;;;23.30;4.75;;;9.70;99.90;;;;;;5030835;28;20037;-60
2022/11/10 01:06:24;;;;;;;16.77;4.50;;;9.70;99.90;;;;;;5031392;28;20480;-62
2022/11/10 01:08:49;;;;;;;14.38;4.60;;;9.70;99.90;;;;;;5035157;28;20060;-61
2022/11/10 01:11:20;;;;;;;17.70;5.05;;;9.60;99.90;;;;;;5027887;28;20064;-61
2022/11/10 01:13:46;;;;;;;15.02;4.45;;;9.70;99.90;;;;;;5030768;28;20112;-61
2022/11/10 01:16:15;;;;;;;14.45;4.55;;;9.60;99.90;;;;;;5029219;28;20574;-61
2022/11/10 01:18:41;;;;;;;18.40;4.97;;;9.60;99.90;;;;;;5031856;28;20368;-61
2022/11/10 01:21:08;;;;;;;20.95;5.13;;;9.60;99.90;;;;;;5028974;28;20037;-61
2022/11/10 01:23:34;;;;;;;14.70;4.85;;;9.60;99.90;;;;;;5029158;28;20400;-62
2022/11/10 01:26:02;;;;;;;18.67;4.72;;;9.50;99.90;;;;;;5030079;28;20034;-62
2022/11/10 01:28:28;;;;;;;17.33;4.75;;;9.50;99.90;;;;;;5028872;28;20046;-61
2022/11/10 01:31:05;;;;;;;17.63;4.63;;;9.60;99.90;;;;;;5029194;28;20143;-62
2022/11/10 01:33:32;;;;;;;19.40;4.40;;;9.60;99.90;;;;;;5030291;28;20561;-61
2022/11/10 01:35:58;;;;;;;15.27;4.45;;;9.50;99.90;;;;;;5029747;28;20048;-61
2022/11/10 01:38:30;;;;;;;16.92;4.85;;;9.50;99.90;;;;;;5011082;28;20400;-61
2022/11/10 01:40:56;;;;;;;16.00;4.18;;;9.50;99.90;;;;;;5022544;28;20038;-61
2022/11/10 01:43:23;;;;;;;19.63;4.82;;;9.50;99.90;;;;;;5027743;28;20033;-61
2022/11/10 01:45:52;;;;;;;13.23;4.25;;;9.50;99.90;;;;;;5029330;28;20041;-63
2022/11/10 01:48:58;;;;;;;17.90;4.35;;;9.50;99.90;;;;;;5033599;28;20449;-61
2022/11/10 01:51:50;;;;;;;14.80;4.10;;;9.50;99.90;;;;;;5016803;28;20148;-61
2022/11/10 01:54:26;;;;;;;14.18;3.85;;;9.50;99.90;;;;;;5031580;28;20049;-61
2022/11/10 01:56:56;;;;;;;20.02;4.28;;;9.50;99.90;;;;;;5032549;28;20033;-62
2022/11/10 01:59:26;;;;;;;12.80;3.45;;;9.50;99.90;;;;;;5033432;28;20102;-61
2022/11/10 02:01:55;;;;;;;14.05;4.20;;;9.40;99.90;;;;;;5033137;28;20077;-62
2022/11/10 02:04:21;;;;;;;16.13;4.10;;;9.40;99.90;;;;;;5033047;28;20038;-62
2022/11/10 02:06:48;;;;;;;9.45;3.70;;;9.40;99.90;;;;;;5032419;28;20037;-61
2022/11/10 02:09:14;;;;;;;14.80;3.58;;;9.40;99.90;;;;;;5031164;28;20507;-62
2022/11/10 02:11:41;;;;;;;18.48;4.63;;;9.50;99.90;;;;;;5032150;28;20045;-61
2022/11/10 02:14:07;;;;;;;10.95;3.78;;;9.40;99.90;;;;;;5033305;28;20068;-62
2022/11/10 02:16:34;;;;;;;14.27;4.07;;;9.80;99.90;;;;;;5033715;28;20644;-60
2022/11/10 02:19:24;;;;;;;12.13;3.80;;;9.40;99.90;;;;;;5028177;28;20045;-61
2022/11/10 02:21:50;;;;;;;13.45;4.75;;;9.50;99.90;;;;;;5028440;28;20049;-61
2022/11/10 02:24:16;;;;;;;15.70;4.00;;;9.40;99.90;;;;;;5033212;28;20053;-62
2022/11/10 02:26:53;;;;;;;18.35;4.65;;;9.50;99.90;;;;;;5032021;28;20053;-61
2022/11/10 02:29:19;;;;;;;14.48;4.32;;;9.50;99.90;;;;;;5025923;28;20163;-62
2022/11/10 02:31:44;;;;;;;15.70;4.88;;;9.50;99.90;;;;;;5029479;28;20120;-62
2022/11/10 02:34:10;;;;;;;14.50;4.05;;;9.50;99.90;;;;;;5032403;28;20033;-61
2022/11/10 02:36:36;;;;;;;16.48;5.20;;;9.50;99.90;;;;;;5028359;28;20120;-63
2022/11/10 02:39:02;;;;;;;16.60;5.10;;;9.50;99.90;;;;;;5030852;28;20033;-61
2022/11/10 02:41:27;;;;;;;17.27;5.63;;;9.60;99.90;;;;;;5032797;28;20099;-62
2022/11/10 02:43:55;;;;;;;20.75;5.47;;;9.50;99.90;;;;;;5032901;28;20037;-61
2022/11/10 02:46:20;;;;;;;14.00;6.05;;;9.50;99.90;;;;;;5032995;28;20041;-62
2022/11/10 02:48:46;;;;;;;17.25;5.70;;;9.60;99.90;;;;;;5031038;28;20389;-63
2022/11/10 02:51:12;;;;;;;18.40;7.03;;;9.60;99.90;;;;;;5031118;28;20045;-61
2022/11/10 02:53:38;;;;;;;20.05;6.60;;;9.60;99.90;;;;;;5030710;28;20414;-61
2022/11/10 02:56:04;;;;;;;25.80;7.93;;;9.60;99.90;;;;;;5031445;28;20080;-61
2022/11/10 02:58:30;;;;;;;24.02;8.57;;;9.60;99.90;;;;;;5031398;28;20076;-62
2022/11/10 03:00:55;;;;;;;21.05;8.50;;;9.60;99.90;;;;;;5032258;28;20037;-61
2022/11/10 03:03:21;;;;;;;22.80;8.65;;;9.60;99.90;;;;;;5032774;28;20396;-62
2022/11/10 03:05:46;;;;;;;23.75;8.32;;;9.60;99.90;;;;;;5032794;28;20045;-63
2022/11/10 03:08:12;;;;;;;21.50;8.75;;;9.60;99.90;;;;;;5031346;28;20284;-62
2022/11/10 03:10:38;;;;;;;23.67;9.43;;;9.60;99.90;;;;;;5030142;28;20575;-61
2022/11/10 03:13:03;;;;;;;29.85;8.93;;;9.60;99.90;;;;;;5032114;28;20040;-62
2022/11/10 03:15:29;;;;;;;28.15;8.90;;;9.60;99.90;;;;;;5029710;28;20029;-62
2022/11/10 03:17:55;;;;;;;23.73;9.85;;;9.60;99.90;;;;;;5030872;28;20123;-63
2022/11/10 03:20:21;;;;;;;28.75;9.60;;;9.60;99.90;;;;;;5032256;28;20437;-61
2022/11/10 03:22:46;;;;;;;30.48;9.52;;;9.60;99.90;;;;;;5033956;28;20063;-60
2022/11/10 03:25:13;;;;;;;25.80;9.70;;;9.60;99.90;;;;;;5031440;28;20041;-61
2022/11/10 03:27:38;;;;;;;24.38;9.88;;;9.60;99.90;;;;;;5030326;28;20523;-61
2022/11/10 03:30:11;;;;;;;25.80;9.68;;;9.60;99.90;;;;;;5031120;28;20041;-61
2022/11/10 03:32:36;;;;;;;25.95;9.45;;;9.60;99.90;;;;;;5031054;28;20065;-61
2022/11/10 03:35:02;;;;;;;23.15;10.25;;;9.60;99.90;;;;;;5029697;28;20073;-62
2022/11/10 03:37:28;;;;;;;22.83;9.55;;;9.60;99.90;;;;;;5030400;28;20042;-61
2022/11/10 03:39:54;;;;;;;20.35;9.35;;;9.60;99.90;;;;;;5030653;28;20113;-62
2022/11/10 03:42:25;;;;;;;22.92;9.68;;;9.60;99.90;;;;;;5031604;28;20500;-63
2022/11/10 03:44:51;;;;;;;26.95;10.80;;;9.60;99.90;;;;;;5029726;28;20046;-63
2022/11/10 03:47:16;;;;;;;21.92;9.35;;;9.50;99.90;;;;;;5031671;28;20096;-63
2022/11/10 03:49:42;;;;;;;21.55;9.35;;;9.50;99.90;;;;;;5031826;28;20403;-61
2022/11/10 03:52:08;;;;;;;24.15;9.32;;;9.50;99.90;;;;;;5027572;28;20507;-63
2022/11/10 03:54:33;;;;;;;20.73;8.70;;;9.50;99.90;;;;;;5031020;28;20045;-62
2022/11/10 03:56:59;;;;;;;23.85;9.57;;;9.50;99.90;;;;;;5029545;28;20044;-62
2022/11/10 03:59:24;;;;;;;21.52;9.48;;;9.50;99.90;;;;;;5031417;28;20116;-60
2022/11/10 04:01:50;;;;;;;22.75;9.05;;;9.50;99.90;;;;;;5029260;28;20050;-61
2022/11/10 04:09:57;;;;;;;21.63;8.95;;;9.50;99.90;;;;;;5030854;28;20057;-61
2022/11/10 04:18:19;;;;;;;24.73;8.77;;;9.50;99.90;;;;;;5027808;28;20491;-62
2022/11/10 04:21:03;;;;;;;26.27;9.57;;;9.50;99.90;;;;;;5030801;28;20091;-63
2022/11/10 04:23:35;;;;;;;21.55;8.65;;;9.50;99.90;;;;;;5031352;28;20041;-61
2022/11/10 04:28:55;;;;;;;23.83;9.48;;;9.60;99.90;;;;;;5029393;28;20049;-61
2022/11/10 04:31:22;;;;;;;24.55;9.82;;;9.50;99.90;;;;;;5029892;28;20506;-64
2022/11/10 04:33:49;;;;;;;20.45;9.50;;;9.60;99.90;;;;;;5031560;28;20049;-61
2022/11/10 04:36:17;;;;;;;26.33;10.18;;;9.60;99.90;;;;;;5030695;28;20041;-60
2022/11/10 04:38:43;;;;;;;22.08;8.77;;;9.60;99.90;;;;;;5035262;28;20033;-62
2022/11/10 04:41:09;;;;;;;25.83;10.32;;;9.60;99.90;;;;;;5030369;28;20037;-62
2022/11/10 04:43:35;;;;;;;26.77;10.07;;;9.60;99.90;;;;;;5026479;28;20095;-61
2022/11/10 04:46:02;;;;;;;20.38;9.93;;;9.60;99.90;;;;;;5030033;28;20049;-61
2022/11/10 04:48:29;;;;;;;28.13;9.98;;;9.60;99.90;;;;;;5026473;28;20045;-61
2022/11/10 04:50:54;;;;;;;25.77;9.95;;;9.50;99.90;;;;;;5025828;28;20056;-60
2022/11/10 04:53:21;;;;;;;28.98;10.70;;;9.60;99.90;;;;;;5027781;28;20026;-62
2022/11/10 04:55:47;;;;;;;32.05;10.77;;;9.60;99.90;;;;;;5019795;28;20042;-61
2022/11/10 04:58:21;;;;;;;25.40;9.50;;;9.60;99.90;;;;;;5026921;28;20510;-61
2022/11/10 05:00:47;;;;;;;25.70;9.77;;;9.60;99.90;;;;;;5022360;28;20125;-61
2022/11/10 05:03:13;;;;;;;29.02;10.40;;;9.70;99.90;;;;;;5029253;28;20497;-63
2022/11/10 05:05:40;;;;;;;24.88;10.30;;;9.70;99.90;;;;;;5023672;28;20526;-61
2022/11/10 05:08:06;;;;;;;24.73;10.50;;;9.70;99.90;;;;;;5029202;28;20400;-61
2022/11/10 05:10:33;;;;;;;26.17;9.93;;;9.60;99.90;;;;;;5026763;28;20054;-63
2022/11/10 05:13:00;;;;;;;26.75;10.18;;;9.60;99.90;;;;;;5022238;28;20080;-62
2022/11/10 05:15:26;;;;;;;20.27;9.98;;;9.70;99.90;;;;;;5027359;28;20088;-63
2022/11/10 05:17:53;;;;;;;25.48;10.55;;;9.70;99.90;;;;;;5023763;28;20074;-60
2022/11/10 05:20:31;;;;;;;25.88;11.18;;;9.60;99.90;;;;;;5025686;28;20060;-63
2022/11/10 05:25:42;;;;;;;23.13;10.85;;;9.60;99.90;;;;;;5030313;28;20132;-62
2022/11/10 05:28:10;;;;;;;28.00;11.27;;;9.60;99.90;;;;;;5032348;28;20487;-62
2022/11/10 05:30:36;;;;;;;26.45;10.55;;;9.70;99.90;;;;;;5032257;28;20046;-61
2022/11/10 05:33:02;;;;;;;24.75;10.70;;;9.70;99.90;;;;;;5028291;28;20103;-60
2022/11/10 05:35:27;;;;;;;29.35;11.23;;;9.80;99.90;;;;;;5025179;28;20037;-60
2022/11/10 05:37:53;;;;;;;28.55;10.63;;;9.70;99.90;;;;;;5029607;28;20045;-61
2022/11/10 05:40:19;;;;;;;28.65;11.57;;;9.70;99.90;;;;;;5020005;28;20029;-63
2022/11/10 05:42:46;;;;;;;27.80;11.63;;;9.70;99.90;;;;;;5029268;28;20041;-60
2022/11/10 05:45:13;;;;;;;26.42;11.18;;;9.70;99.90;;;;;;5027372;28;20135;-60
2022/11/10 05:47:39;;;;;;;24.00;11.00;;;9.70;99.90;;;;;;5025443;28;20049;-62
2022/11/10 05:50:11;;;;;;;25.48;10.88;;;9.70;99.90;;;;;;5026713;28;20060;-62
2022/11/10 05:52:53;;;;;;;28.92;11.65;;;9.70;99.90;;;;;;5030086;28;20034;-62
2022/11/10 05:55:20;;;;;;;;;;;9.70;99.90;;;;;;5030426;28;20251;-62
2022/11/10 05:57:48;;;;;;;27.95;11.18;;;9.60;99.90;;;;;;5014973;28;19933;-62
2022/11/10 06:00:30;;;;;;;24.95;10.75;;;9.60;99.90;;;;;;5017124;28;20419;-63
2022/11/10 06:02:57;;;;;;;26.70;11.40;;;9.60;99.90;;;;;;5024681;28;20045;-62
2022/11/10 06:05:23;;;;;;;30.48;11.10;;;9.60;99.90;;;;;;5025186;28;20121;-62
2022/11/10 06:07:49;;;;;;;27.92;10.65;;;9.60;99.90;;;;;;5015168;28;20555;-62
2022/11/10 06:10:15;;;;;;;24.45;10.93;;;9.60;99.90;;;;;;5027511;28;20452;-62
2022/11/10 06:12:40;;;;;;;28.30;11.15;;;9.60;99.90;;;;;;5021396;28;20041;-62
2022/11/10 06:15:07;;;;;;;27.52;11.13;;;9.60;99.90;;;;;;5025042;28;20550;-61
2022/11/10 06:17:35;;;;;;;25.98;11.13;;;9.60;99.90;;;;;;5028773;28;20045;-62
2022/11/10 06:20:02;;;;;;;29.67;11.40;;;9.50;99.90;;;;;;5023199;28;20041;-62
2022/11/10 06:22:27;;;;;;;25.38;10.98;;;9.60;99.90;;;;;;5019168;28;20041;-62
2022/11/10 06:24:53;;;;;;;23.00;11.30;;;9.50;99.90;;;;;;5022701;28;20487;-62
2022/11/10 06:27:19;;;;;;;26.95;11.68;;;9.50;99.90;;;;;;5025643;28;20514;-62
2022/11/10 06:29:44;;;;;;;30.40;11.98;;;9.50;99.90;;;;;;5027171;28;20554;-61
2022/11/10 06:32:10;;;;;;;29.05;11.43;;;9.50;99.90;;;;;;5020973;28;20436;-63
2022/11/10 06:34:36;;;;;;;29.88;11.35;;;9.50;99.90;;;;;;5022490;28;20120;-63
2022/11/10 06:37:02;;;;;;;28.67;11.20;;;9.50;99.90;;;;;;5031689;28;20175;-63
2022/11/10 06:39:27;;;;;;;26.98;10.85;;;9.40;99.90;;;;;;5031640;28;20037;-63
2022/11/10 06:41:53;;;;;;;28.92;12.43;;;9.50;99.90;;;;;;5031034;28;20487;-62
2022/11/10 06:44:18;;;;;;;28.92;11.77;;;9.50;99.90;;;;;;5027430;28;20113;-60
2022/11/10 06:46:44;;;;;;;27.77;11.40;;;9.50;99.90;;;;;;5028431;28;20081;-62
2022/11/10 06:49:10;;;;;;;30.83;12.13;;;9.50;99.90;;;;;;5025572;28;20492;-62
2022/11/10 06:51:35;;;;;;;28.45;11.95;;;9.50;99.90;;;;;;5031139;28;20046;-63
2022/11/10 06:54:01;;;;;;;25.95;11.25;;;9.50;99.90;;;;;;5029498;28;20029;-62
2022/11/10 06:56:26;;;;;;;33.05;11.73;;;9.50;99.90;;;;;;5018639;28;20084;-63
2022/11/10 06:58:52;;;;;;;27.85;11.10;;;9.50;99.90;;;;;;5017392;28;20388;-61
2022/11/10 07:01:20;;;;;;;29.50;12.10;;;9.50;99.90;;;;;;5029759;28;20041;-63
2022/11/10 07:03:45;;;;;;;30.13;12.25;;;9.50;99.90;;;;;;5028761;28;20051;-62
2022/11/10 07:06:11;;;;;;;29.88;11.05;;;9.50;99.90;;;;;;5025796;28;20121;-62
2022/11/10 07:08:37;;;;;;;31.45;11.80;;;9.40;99.90;;;;;;5029389;28;20049;-63
2022/11/10 07:11:02;;;;;;;29.52;12.35;;;9.40;99.90;;;;;;5030478;28;20041;-63
2022/11/10 07:13:28;;;;;;;34.47;12.60;;;9.50;99.90;;;;;;5025927;28;20060;-62
2022/11/10 07:15:53;;;;;;;29.30;12.40;;;9.50;99.90;;;;;;5028599;28;20034;-60
2022/11/10 07:18:19;;;;;;;29.17;11.90;;;9.50;99.90;;;;;;5030883;28;20044;-63
2022/11/10 07:20:45;;;;;;;33.30;12.18;;;9.50;99.90;;;;;;5025968;28;20052;-62
2022/11/10 07:23:11;;;;;;;25.92;12.32;;;9.50;99.90;;;;;;5029463;28;20033;-62
2022/11/10 07:25:36;;;;;;;35.08;14.07;;;9.60;99.90;;;;;;5032670;28;20095;-63
2022/11/10 07:28:07;;;;;;;32.58;13.27;;;9.60;99.90;;;;;;5027908;28;20420;-62
2022/11/10 07:30:34;;;;;;;31.58;13.18;;;9.60;99.90;;;;;;5024615;28;20034;-62
2022/11/10 07:33:04;;;;;;;37.55;13.93;;;9.60;99.90;;;;;;5024925;28;20492;-63
2022/11/10 07:35:31;;;;;;;27.45;13.45;;;9.60;99.90;;;;;;5020801;28;20048;-65
2022/11/10 07:38:00;;;;;;;30.90;13.10;;;9.70;99.90;;;;;;5030968;28;20063;-64
2022/11/10 07:40:25;;;;;;;27.30;13.15;;;9.80;99.90;;;;;;5031050;28;20052;-62
2022/11/10 07:42:51;;;;;;;31.17;13.55;;;9.70;99.90;;;;;;5028819;28;20411;-63
2022/11/10 07:45:17;;;;;;;36.35;14.43;;;9.60;99.90;;;;;;5028599;28;20049;-64
2022/11/10 07:47:42;;;;;;;32.95;14.57;;;9.60;99.90;;;;;;5030902;28;20046;-64
2022/11/10 07:50:08;;;;;;;30.75;14.07;;;9.70;99.90;;;;;;5027899;28;20042;-63
2022/11/10 07:52:34;;;;;;;35.72;14.65;;;9.70;99.90;;;;;;5028185;28;20048;-63
2022/11/10 07:54:59;;;;;;;36.28;15.07;;;9.60;99.90;;;;;;5029761;28;20503;-63
2022/11/10 07:57:25;;;;;;;31.63;14.20;;;9.70;99.90;;;;;;5028241;28;20183;-63
2022/11/10 07:59:51;;;;;;;38.67;15.15;;;9.70;99.90;;;;;;5021740;28;20046;-65
2022/11/10 08:02:16;;;;;;;36.45;14.73;;;9.70;99.90;;;;;;5027731;28;20046;-63
2022/11/10 08:04:42;;;;;;;31.27;13.07;;;9.70;99.90;;;;;;5030665;28;20048;-63
2022/11/10 08:07:07;;;;;;;28.67;14.40;;;9.80;99.90;;;;;;5025145;28;20061;-63
2022/11/10 08:09:33;;;;;;;29.08;14.32;;;9.70;99.90;;;;;;5030197;28;20045;-65
2022/11/10 08:11:59;;;;;;;33.88;15.35;;;9.80;99.90;;;;;;5026526;28;20499;-63
2022/11/10 08:14:24;;;;;;;33.00;14.68;;;9.80;99.90;;;;;;5031821;28;20084;-63
2022/11/10 08:16:50;;;;;;;34.33;14.45;;;9.80;99.90;;;;;;5013661;28;20045;-63
2022/11/10 08:19:16;;;;;;;34.72;15.00;;;9.80;99.90;;;;;;5031207;28;20060;-63
2022/11/10 08:21:42;;;;;;;30.88;14.25;;;9.90;99.90;;;;;;5026038;28;20088;-63
2022/11/10 08:24:08;;;;;;;32.53;13.77;;;9.90;99.90;;;;;;5025953;28;20042;-66
2022/11/10 08:26:33;;;;;;;32.58;14.15;;;10.00;99.90;;;;;;5024705;28;20408;-63
2022/11/10 08:28:59;;;;;;;31.27;14.77;;;10.00;99.90;;;;;;5026238;28;20048;-63
2022/11/10 08:31:24;;;;;;;29.02;14.40;;;10.00;99.90;;;;;;5026955;28;20037;-64
2022/11/10 08:33:50;;;;;;;35.15;13.63;;;10.10;99.90;;;;;;5024354;28;20033;-64
2022/11/10 08:36:16;;;;;;;30.38;13.13;;;10.20;99.90;;;;;;5028773;28;20044;-65
2022/11/10 08:38:41;;;;;;;29.17;12.88;;;10.20;99.90;;;;;;5026948;28;20041;-63
2022/11/10 08:41:07;;;;;;;33.17;13.05;;;10.30;99.90;;;;;;5012831;28;20042;-64
2022/11/10 08:43:33;;;;;;;26.15;12.82;;;10.50;99.90;;;;;;5028730;28;20050;-64
2022/11/10 08:46:00;;;;;;;26.50;12.50;;;10.40;99.90;;;;;;5030902;28;20037;-64
2022/11/10 08:48:38;;;;;;;25.13;11.52;;;10.50;99.90;;;;;;5028445;28;20120;-64
2022/11/10 08:51:04;;;;;;;28.65;12.50;;;10.50;99.90;;;;;;5024462;28;20042;-64
2022/11/10 08:53:29;;;;;;;35.85;12.13;;;10.60;99.90;;;;;;5028711;28;20104;-65
2022/11/10 08:55:59;;;;;;;29.17;10.82;;;10.60;99.90;;;;;;5028327;28;20531;-65
2022/11/10 08:58:24;;;;;;;23.80;10.65;;;10.70;99.90;;;;;;5029909;28;20068;-62
2022/11/10 09:00:51;;;;;;;24.98;10.80;;;10.60;99.90;;;;;;5030170;28;20516;-65
2022/11/10 09:03:22;;;;;;;25.45;10.60;;;10.60;99.90;;;;;;5028292;28;20042;-64
2022/11/10 09:05:49;;;;;;;25.25;10.27;;;10.70;99.90;;;;;;5028862;28;20049;-64
2022/11/10 09:08:15;;;;;;;25.60;10.60;;;10.70;99.90;;;;;;5027459;28;20072;-63
2022/11/10 09:10:44;;;;;;;24.50;10.48;;;10.70;99.90;;;;;;5025024;28;20045;-64
2022/11/10 09:13:11;;;;;;;29.75;10.30;;;10.70;99.90;;;;;;5029102;28;20044;-64
2022/11/10 09:15:37;;;;;;;23.80;10.15;;;10.80;99.90;;;;;;5030656;28;20076;-64
2022/11/10 09:18:05;;;;;;;28.35;9.82;;;10.80;99.90;;;;;;5029962;28;20392;-64
2022/11/10 09:20:32;;;;;;;28.65;9.80;;;10.80;99.90;;;;;;5028405;28;20045;-63
2022/11/10 09:23:16;;;;;;;31.67;10.60;;;10.90;99.90;;;;;;5030521;28;20488;-65
2022/11/10 09:25:42;;;;;;;25.88;10.10;;;10.90;99.90;;;;;;5031058;28;20132;-62
2022/11/10 09:28:12;;;;;;;25.10;9.30;;;11.00;99.90;;;;;;5028781;28;20065;-64
2022/11/10 09:30:39;;;;;;;31.10;9.90;;;11.00;99.90;;;;;;5029958;28;20064;-63
2022/11/10 09:33:07;;;;;;;29.70;8.93;;;11.10;99.90;;;;;;5029450;28;20033;-63
2022/11/10 09:35:33;;;;;;;24.65;8.23;;;11.10;99.90;;;;;;5026132;28;20042;-62
2022/11/10 09:37:59;;;;;;;28.95;7.95;;;11.20;99.90;;;;;;5029821;28;20048;-62
2022/11/10 09:40:40;;;;;;;26.73;8.90;;;11.20;99.90;;;;;;5013956;28;20490;-62
2022/11/10 09:43:13;;;;;;;30.05;8.63;;;11.30;99.90;;;;;;5028568;28;20037;-64
2022/11/10 09:45:43;;;;;;;26.02;7.68;;;11.40;99.90;;;;;;5027067;28;20053;-62
2022/11/10 09:48:36;;;;;;;25.15;7.80;;;11.40;99.90;;;;;;5027924;28;20088;-62
2022/11/10 09:51:30;;;;;;;23.23;8.32;;;11.50;99.90;;;;;;5024372;28;20099;-62
2022/11/10 09:54:02;;;;;;;23.42;7.10;;;11.60;99.90;;;;;;5030367;28;20606;-62
2022/11/10 09:56:32;;;;;;;;;;;11.60;99.90;;;;;;5030703;28;20064;-66
2022/11/10 09:58:59;;;;;;;23.25;7.07;;;11.70;99.90;;;;;;5027703;28;19970;-66
2022/11/10 10:01:33;;;;;;;26.48;7.00;;;11.80;99.90;;;;;;5029842;28;20052;-63
2022/11/10 10:04:01;;;;;;;23.35;6.40;;;11.80;99.90;;;;;;5027694;28;20068;-65
2022/11/10 10:06:27;;;;;;;25.50;6.65;;;11.80;99.90;;;;;;5028442;28;20045;-64
2022/11/10 10:09:09;;;;;;;16.58;6.13;;;11.90;99.90;;;;;;5032364;28;20124;-64
2022/11/10 10:11:54;;;;;;;23.48;6.15;;;11.90;99.90;;;;;;5032708;28;20088;-64
2022/11/10 10:14:20;;;;;;;22.33;5.93;;;12.00;99.90;;;;;;5022844;28;20052;-64
2022/11/10 10:16:59;;;;;;;17.67;5.60;;;12.10;99.90;;;;;;5035669;28;20037;-63
2022/11/10 10:19:28;;;;;;;21.38;6.15;;;12.20;99.90;;;;;;5009474;28;20408;-64
2022/11/10 10:22:32;;;;;;;16.90;5.70;;;12.30;99.90;;;;;;5030011;28;20037;-63
2022/11/10 10:25:02;;;;;;;17.35;5.10;;;12.40;99.90;;;;;;5024271;28;20484;-65
2022/11/10 10:27:30;;;;;;;21.70;5.55;;;12.40;99.90;;;;;;5038762;28;20060;-64
2022/11/10 10:29:56;;;;;;;18.88;5.22;;;12.50;99.90;;;;;;5033042;28;20396;-64
2022/11/10 10:32:22;;;;;;;16.58;5.03;;;12.50;99.90;;;;;;5031978;28;20037;-65
2022/11/10 10:34:48;;;;;;;24.15;5.90;;;12.60;99.90;;;;;;5031845;28;20116;-66
2022/11/10 10:37:29;;;;;;;19.23;4.88;;;12.60;99.90;;;;;;5033108;28;20045;-63
2022/11/10 10:39:54;;;;;;;22.25;5.07;;;12.70;99.90;;;;;;5022260;28;20050;-64
2022/11/10 10:42:30;;;;;;;20.48;4.95;;;12.80;99.90;;;;;;5031221;28;20053;-64
2022/11/10 10:45:14;;;;;;;18.65;4.70;;;12.80;99.90;;;;;;5032680;28;20033;-64
2022/11/10 10:47:40;;;;;;;20.77;4.68;;;13.00;99.90;;;;;;5027725;28;20044;-63
2022/11/10 10:50:29;;;;;;;21.50;4.93;;;13.00;99.90;;;;;;5031709;28;20497;-64
2022/11/10 10:53:14;;;;;;;25.38;5.35;;;13.00;99.90;;;;;;5015117;28;20038;-65
2022/11/10 10:59:20;;;;;;;19.42;4.57;;;13.00;99.90;;;;;;5031640;28;20122;-65
2022/11/10 11:01:46;;;;;;;17.98;4.18;;;13.10;99.90;;;;;;5034819;28;20495;-64
2022/11/10 11:04:35;;;;;;;18.77;4.20;;;13.10;99.90;;;;;;5033190;28;20047;-64
2022/11/10 11:07:04;;;;;;;21.25;4.88;;;13.10;99.90;;;;;;5033023;28;20041;-65
2022/11/10 11:09:40;;;;;;;15.20;5.03;;;13.20;99.90;;;;;;5025344;28;20045;-65
2022/11/10 11:12:30;;;;;;;20.52;4.60;;;13.30;99.90;;;;;;5029472;28;20046;-65
2022/11/10 11:15:27;;;;;;;18.73;5.28;;;13.30;99.90;;;;;;5027157;28;20045;-64
2022/11/10 11:17:57;;;;;;;17.35;3.95;;;13.30;99.90;;;;;;5031119;28;20095;-63
2022/11/10 11:20:55;;;;;;;17.33;4.30;;;13.40;99.90;;;;;;5024234;28;20045;-65
2022/11/10 11:23:37;;;;;;;20.13;5.28;;;13.50;99.90;;;;;;5032647;28;20033;-64
2022/11/10 11:26:27;;;;;;;19.98;4.07;;;13.60;99.90;;;;;;5032761;28;20091;-65
2022/11/10 11:29:30;;;;;;;21.55;4.72;;;13.70;99.90;;;;;;5030408;28;20041;-64
2022/11/10 11:32:30;;;;;;;22.80;4.30;;;13.90;99.90;;;;;;5022847;28;20400;-65
2022/11/10 11:35:20;;;;;;;17.55;4.60;;;14.00;99.90;;;;;;5028705;28;20037;-64
2022/11/10 11:38:05;;;;;;;15.73;3.55;;;14.00;99.90;;;;;;5031054;28;20048;-63
2022/11/10 11:40:39;;;;;;;17.75;3.40;;;14.00;99.90;;;;;;5024288;28;20052;-63
2022/11/10 11:43:25;;;;;;;18.20;3.70;;;14.00;99.90;;;;;;5028248;28;20041;-64
2022/11/10 11:46:01;;;;;;;17.52;3.50;;;14.00;99.90;;;;;;5026922;28;20057;-63
2022/11/10 11:48:33;;;;;;;17.73;4.03;;;14.00;99.90;;;;;;5028965;28;20045;-65
2022/11/10 11:51:19;;;;;;;17.88;3.40;;;14.00;99.90;;;;;;5030447;28;20050;-65
2022/11/10 11:54:03;;;;;;;18.45;3.22;;;13.90;99.90;;;;;;5009986;28;20042;-65
2022/11/10 11:56:41;;;;;;;20.90;3.30;;;13.90;99.90;;;;;;5022951;28;20038;-65
2022/11/10 11:59:15;;;;;;;20.55;3.17;;;14.00;99.90;;;;;;5028037;28;20041;-62
2022/11/10 12:02:01;;;;;;;20.77;3.28;;;14.00;99.90;;;;;;5031672;28;20528;-62
2022/11/10 12:04:56;;;;;;;14.55;2.72;;;13.90;99.90;;;;;;5023346;28;20060;-62
2022/11/10 12:07:34;;;;;;;16.55;3.50;;;13.90;99.90;;;;;;5031218;28;20048;-62
2022/11/10 12:10:37;;;;;;;16.33;2.97;;;13.90;99.90;;;;;;5030781;28;20046;-63
2022/11/10 12:13:16;;;;;;;15.60;2.85;;;13.90;99.90;;;;;;5028927;28;20065;-62
2022/11/10 12:16:19;;;;;;;10.98;2.47;;;13.90;99.90;;;;;;5031275;28;20037;-62
2022/11/10 12:19:15;;;;;;;18.48;3.33;;;14.00;99.90;;;;;;5033478;28;20041;-62
2022/11/10 12:21:59;;;;;;;16.42;3.30;;;14.00;99.90;;;;;;5026090;28;20045;-62
2022/11/10 12:24:33;;;;;;;15.18;3.17;;;14.00;99.90;;;;;;5031243;28;20140;-63
2022/11/10 12:27:08;;;;;;;20.35;2.75;;;14.00;99.90;;;;;;5029283;28;20045;-62
2022/11/10 12:29:45;;;;;;;15.70;3.13;;;14.00;99.90;;;;;;5023871;28;20496;-62
2022/11/10 12:32:16;;;;;;;17.63;3.22;;;14.00;99.90;;;;;;5030520;28;20404;-63
2022/11/10 12:34:54;;;;;;;13.32;2.50;;;14.00;99.90;;;;;;5031162;28;20045;-63
2022/11/10 12:37:46;;;;;;;15.77;2.47;;;14.00;99.90;;;;;;5030231;28;20045;-62
2022/11/10 12:40:19;;;;;;;18.13;2.75;;;14.10;99.90;;;;;;5033294;28;20071;-62
2022/11/10 12:42:51;;;;;;;20.55;3.70;;;14.10;99.90;;;;;;5030239;28;20470;-64
2022/11/10 12:45:39;;;;;;;16.20;3.38;;;14.10;99.90;;;;;;5027442;28;20053;-64
2022/11/10 12:48:08;;;;;;;14.27;3.40;;;14.20;99.90;;;;;;5029513;28;20041;-63
2022/11/10 12:50:33;;;;;;;14.15;3.13;;;14.30;99.90;;;;;;5010247;28;20038;-62
2022/11/10 12:53:10;;;;;;;15.38;2.90;;;14.30;99.90;;;;;;5032121;28;20068;-63
2022/11/10 12:55:43;;;;;;;12.80;3.20;;;14.40;99.90;;;;;;5029603;28;20045;-62
2022/11/10 12:58:13;;;;;;;17.30;3.10;;;14.40;99.90;;;;;;5032676;28;20122;-63
2022/11/10 13:00:53;;;;;;;13.82;2.97;;;14.40;99.90;;;;;;5030433;28;20111;-62
2022/11/10 13:03:50;;;;;;;17.38;2.85;;;14.40;99.90;;;;;;5028946;28;20087;-62
2022/11/10 13:06:24;;;;;;;17.27;2.58;;;14.40;99.90;;;;;;5030355;28;20375;-62
2022/11/10 13:08:50;;;;;;;13.25;2.90;;;14.40;99.90;;;;;;5029728;28;20107;-66
2022/11/10 13:11:15;;;;;;;17.98;2.75;;;14.40;99.90;;;;;;5029252;28;20037;-65
2022/11/10 13:13:53;;;;;;;17.30;3.17;;;14.40;99.90;;;;;;5037368;28;20041;-62
2022/11/10 13:16:37;;;;;;;16.98;3.33;;;14.30;99.90;;;;;;5033769;28;20041;-62
2022/11/10 13:19:04;;;;;;;18.25;3.30;;;14.30;99.90;;;;;;5028239;28;20495;-62